NWK1603 YPLM-YPPH
Flight info
| Callsign | NWK1603 |
|---|---|
| Flight time | 1h 28m |
| Altitude | 37000 |
| Route | LM Y207 BORVI B469 TOPIR/N0453F360 L514 AVPAL Q38 JULIM |
| Aircraft | A319/M-SDFGHIRWXYZ/LB1 |
Departure
| Time | 2026-04-26 06:17 |
|---|---|
| Airport | Learmonth Airport (YPLM) |
Arrival
| Time | 2026-04-26 07:45 |
|---|---|
| Airport | Perth International Airport (YPPH) |
| Time | Latitude | Longitude | Altitude | Speed | Heading |
|---|---|---|---|---|---|
| 2026-04-26 06:09 | -22.23993 | 114.09331 | 24 ft | 0 kts | 148° |
| 2026-04-26 06:14 | -22.24001 | 114.09331 | 51 ft | 1 kts | 191° |
| 2026-04-26 06:14 | -22.24011 | 114.09316 | 24 ft | 4 kts | 240° |
| 2026-04-26 06:14 | -22.24018 | 114.09278 | 24 ft | 6 kts | 263° |
| 2026-04-26 06:15 | -22.24020 | 114.09227 | 24 ft | 8 kts | 269° |
| 2026-04-26 06:15 | -22.24017 | 114.09164 | 24 ft | 9 kts | 273° |
| 2026-04-26 06:15 | -22.24013 | 114.09090 | 25 ft | 11 kts | 273° |
| 2026-04-26 06:15 | -22.24017 | 114.09007 | 28 ft | 12 kts | 253° |
| 2026-04-26 06:16 | -22.23965 | 114.08972 | 28 ft | 11 kts | 359° |
| 2026-04-26 06:16 | -22.23822 | 114.08983 | 26 ft | 42 kts | 4° |
| 2026-04-26 06:16 | -22.23327 | 114.09019 | 24 ft | 100 kts | 4° |
| 2026-04-26 06:16 | -22.22453 | 114.09086 | 60 ft | 147 kts | 6° |
| 2026-04-26 06:17 | -22.21446 | 114.09172 | 643 ft | 144 kts | 5° |
| 2026-04-26 06:17 | -22.20444 | 114.09240 | 1300 ft | 144 kts | 5° |
| 2026-04-26 06:17 | -22.19462 | 114.09499 | 1774 ft | 153 kts | 26° |
| 2026-04-26 06:17 | -22.18654 | 114.10353 | 1966 ft | 180 kts | 63° |
| 2026-04-26 06:18 | -22.18538 | 114.11765 | 2168 ft | 210 kts | 99° |
| 2026-04-26 06:18 | -22.19327 | 114.13206 | 2436 ft | 242 kts | 134° |
| 2026-04-26 06:18 | -22.20867 | 114.14046 | 3082 ft | 256 kts | 167° |
| 2026-04-26 06:18 | -22.22721 | 114.14001 | 3604 ft | 279 kts | 191° |
| 2026-04-26 06:19 | -22.24628 | 114.13460 | 4451 ft | 286 kts | 195° |
| 2026-04-26 06:19 | -22.26559 | 114.12859 | 5365 ft | 290 kts | 195° |
| 2026-04-26 06:19 | -22.28506 | 114.12239 | 6343 ft | 293 kts | 195° |
| 2026-04-26 06:19 | -22.30500 | 114.11773 | 7201 ft | 294 kts | 179° |
| 2026-04-26 06:20 | -22.32492 | 114.12053 | 8017 ft | 294 kts | 162° |
| 2026-04-26 06:20 | -22.34476 | 114.12611 | 8893 ft | 296 kts | 161° |
| 2026-04-26 06:20 | -22.36480 | 114.13191 | 9753 ft | 299 kts | 161° |
| 2026-04-26 06:20 | -22.38523 | 114.13783 | 10339 ft | 313 kts | 161° |
| 2026-04-26 06:21 | -22.40703 | 114.14416 | 10604 ft | 336 kts | 161° |
| 2026-04-26 06:21 | -22.43033 | 114.15086 | 10907 ft | 355 kts | 162° |
| 2026-04-26 06:21 | -22.45443 | 114.15769 | 11505 ft | 362 kts | 163° |
| 2026-04-26 06:21 | -22.47899 | 114.16462 | 12181 ft | 367 kts | 163° |
| 2026-04-26 06:22 | -22.50381 | 114.17163 | 12862 ft | 371 kts | 164° |
| 2026-04-26 06:22 | -22.52892 | 114.17873 | 13515 ft | 376 kts | 164° |
| 2026-04-26 06:22 | -22.55438 | 114.18596 | 14116 ft | 381 kts | 165° |
| 2026-04-26 06:22 | -22.58015 | 114.19330 | 14699 ft | 385 kts | 165° |
| 2026-04-26 06:23 | -22.60615 | 114.20073 | 15272 ft | 389 kts | 165° |
| 2026-04-26 06:23 | -22.63246 | 114.20825 | 15840 ft | 393 kts | 165° |
| 2026-04-26 06:23 | -22.65867 | 114.21574 | 16393 ft | 397 kts | 165° |
| 2026-04-26 06:23 | -22.68546 | 114.22341 | 16943 ft | 400 kts | 165° |
| 2026-04-26 06:24 | -22.71259 | 114.23119 | 17489 ft | 404 kts | 165° |
| 2026-04-26 06:24 | -22.73995 | 114.23901 | 18014 ft | 409 kts | 165° |
| 2026-04-26 06:24 | -22.76753 | 114.24690 | 18497 ft | 413 kts | 165° |
| 2026-04-26 06:24 | -22.79548 | 114.25490 | 18951 ft | 416 kts | 166° |
| 2026-04-26 06:25 | -22.82357 | 114.26292 | 19430 ft | 420 kts | 166° |
| 2026-04-26 06:25 | -22.85191 | 114.27100 | 19894 ft | 423 kts | 166° |
| 2026-04-26 06:25 | -22.88052 | 114.27916 | 20366 ft | 427 kts | 166° |
| 2026-04-26 06:25 | -22.90940 | 114.28742 | 20831 ft | 430 kts | 166° |
| 2026-04-26 06:26 | -22.93841 | 114.29574 | 21284 ft | 433 kts | 166° |
| 2026-04-26 06:26 | -22.96767 | 114.30414 | 21720 ft | 437 kts | 166° |
| 2026-04-26 06:26 | -22.99679 | 114.31252 | 22134 ft | 440 kts | 166° |
| 2026-04-26 06:26 | -23.02686 | 114.32116 | 22546 ft | 443 kts | 166° |
| 2026-04-26 06:27 | -23.05671 | 114.32972 | 22943 ft | 446 kts | 166° |
| 2026-04-26 06:27 | -23.08693 | 114.33838 | 23348 ft | 449 kts | 166° |
| 2026-04-26 06:27 | -23.11689 | 114.34700 | 23702 ft | 452 kts | 166° |
| 2026-04-26 06:27 | -23.14732 | 114.35576 | 24045 ft | 454 kts | 166° |
| 2026-04-26 06:28 | -23.17794 | 114.36457 | 24394 ft | 456 kts | 166° |
| 2026-04-26 06:28 | -23.20849 | 114.37335 | 24737 ft | 458 kts | 166° |
| 2026-04-26 06:28 | -23.23951 | 114.38225 | 25089 ft | 459 kts | 166° |
| 2026-04-26 06:28 | -23.27047 | 114.39116 | 25428 ft | 461 kts | 167° |
| 2026-04-26 06:29 | -23.30154 | 114.40012 | 25770 ft | 463 kts | 167° |
| 2026-04-26 06:29 | -23.33268 | 114.40912 | 26107 ft | 465 kts | 167° |
| 2026-04-26 06:29 | -23.36408 | 114.41821 | 26429 ft | 467 kts | 167° |
| 2026-04-26 06:29 | -23.39555 | 114.42733 | 26759 ft | 469 kts | 167° |
| 2026-04-26 06:30 | -23.42692 | 114.43640 | 27069 ft | 471 kts | 167° |
| 2026-04-26 06:30 | -23.45909 | 114.44565 | 27395 ft | 473 kts | 167° |
| 2026-04-26 06:30 | -23.49054 | 114.45470 | 27706 ft | 474 kts | 167° |
| 2026-04-26 06:30 | -23.52252 | 114.46391 | 28016 ft | 476 kts | 167° |
| 2026-04-26 06:31 | -23.55466 | 114.47318 | 28332 ft | 478 kts | 167° |
| 2026-04-26 06:31 | -23.58685 | 114.48252 | 28637 ft | 480 kts | 167° |
| 2026-04-26 06:31 | -23.61922 | 114.49191 | 28934 ft | 482 kts | 167° |
| 2026-04-26 06:31 | -23.65170 | 114.50130 | 29243 ft | 484 kts | 167° |
| 2026-04-26 06:32 | -23.68428 | 114.51074 | 29524 ft | 486 kts | 167° |
| 2026-04-26 06:32 | -23.71706 | 114.52026 | 29810 ft | 488 kts | 167° |
| 2026-04-26 06:32 | -23.74985 | 114.52981 | 30078 ft | 490 kts | 167° |
| 2026-04-26 06:32 | -23.78287 | 114.53943 | 30310 ft | 491 kts | 167° |
| 2026-04-26 06:33 | -23.81604 | 114.54905 | 30527 ft | 493 kts | 167° |
| 2026-04-26 06:33 | -23.84934 | 114.55873 | 30815 ft | 494 kts | 168° |
| 2026-04-26 06:33 | -23.88252 | 114.56841 | 31153 ft | 493 kts | 168° |
| 2026-04-26 06:33 | -23.91521 | 114.57795 | 31490 ft | 492 kts | 168° |
| 2026-04-26 06:34 | -23.94842 | 114.58764 | 31822 ft | 492 kts | 168° |
| 2026-04-26 06:34 | -23.98154 | 114.59732 | 32163 ft | 492 kts | 168° |
| 2026-04-26 06:34 | -24.01463 | 114.60698 | 32516 ft | 491 kts | 168° |
| 2026-04-26 06:34 | -24.04770 | 114.61664 | 32877 ft | 491 kts | 168° |
| 2026-04-26 06:35 | -24.08034 | 114.62618 | 33249 ft | 491 kts | 168° |
| 2026-04-26 06:35 | -24.11334 | 114.63583 | 33627 ft | 490 kts | 168° |
| 2026-04-26 06:35 | -24.14627 | 114.64545 | 34006 ft | 489 kts | 169° |
| 2026-04-26 06:35 | -24.17926 | 114.65507 | 34336 ft | 489 kts | 169° |
| 2026-04-26 06:36 | -24.21212 | 114.66465 | 34663 ft | 489 kts | 169° |
| 2026-04-26 06:36 | -24.24513 | 114.67430 | 34974 ft | 489 kts | 169° |
| 2026-04-26 06:36 | -24.27775 | 114.68383 | 35281 ft | 490 kts | 169° |
| 2026-04-26 06:36 | -24.31064 | 114.69344 | 35583 ft | 490 kts | 169° |
| 2026-04-26 06:37 | -24.34363 | 114.70308 | 35885 ft | 490 kts | 169° |
| 2026-04-26 06:37 | -24.37659 | 114.71274 | 36169 ft | 490 kts | 169° |
| 2026-04-26 06:37 | -24.40951 | 114.72242 | 36446 ft | 490 kts | 169° |
| 2026-04-26 06:37 | -24.44250 | 114.73216 | 36718 ft | 491 kts | 169° |
| 2026-04-26 06:38 | -24.47515 | 114.74181 | 36913 ft | 492 kts | 169° |
| 2026-04-26 06:38 | -24.54118 | 114.76127 | 36964 ft | 490 kts | 169° |
| 2026-04-26 06:39 | -24.60706 | 114.78060 | 36969 ft | 490 kts | 169° |
| 2026-04-26 06:39 | -24.67287 | 114.79991 | 36963 ft | 490 kts | 169° |
| 2026-04-26 06:40 | -24.73838 | 114.81925 | 36960 ft | 490 kts | 169° |
| 2026-04-26 06:40 | -24.80430 | 114.83877 | 36961 ft | 490 kts | 169° |
| 2026-04-26 06:41 | -24.87037 | 114.85832 | 36962 ft | 490 kts | 169° |
| 2026-04-26 06:41 | -24.92519 | 114.87449 | 36962 ft | 490 kts | 169° |
| 2026-04-26 06:42 | -25.00191 | 114.89717 | 36963 ft | 491 kts | 169° |
| 2026-04-26 06:42 | -25.06788 | 114.91680 | 36963 ft | 491 kts | 169° |
| 2026-04-26 06:43 | -25.12270 | 114.93316 | 36961 ft | 491 kts | 169° |
| 2026-04-26 06:43 | -25.18890 | 114.95285 | 36964 ft | 491 kts | 169° |
| 2026-04-26 06:44 | -25.25460 | 114.97235 | 36959 ft | 491 kts | 169° |
| 2026-04-26 06:44 | -25.32074 | 114.99208 | 36959 ft | 492 kts | 169° |
| 2026-04-26 06:45 | -25.38651 | 115.01179 | 36959 ft | 492 kts | 169° |
| 2026-04-26 06:45 | -25.45263 | 115.03155 | 36948 ft | 492 kts | 170° |
| 2026-04-26 06:46 | -25.51883 | 115.05132 | 36956 ft | 492 kts | 170° |
| 2026-04-26 06:46 | -25.58514 | 115.07111 | 36958 ft | 493 kts | 170° |
| 2026-04-26 06:47 | -25.65145 | 115.09094 | 36950 ft | 493 kts | 170° |
| 2026-04-26 06:47 | -25.71750 | 115.11080 | 36959 ft | 494 kts | 170° |
| 2026-04-26 06:48 | -25.78376 | 115.13077 | 36957 ft | 494 kts | 170° |
| 2026-04-26 06:48 | -25.85021 | 115.15078 | 36957 ft | 494 kts | 170° |
| 2026-04-26 06:49 | -25.91665 | 115.17080 | 36962 ft | 494 kts | 170° |
| 2026-04-26 06:49 | -25.98304 | 115.19081 | 36967 ft | 494 kts | 170° |
| 2026-04-26 06:50 | -26.04926 | 115.21080 | 36959 ft | 495 kts | 170° |
| 2026-04-26 06:50 | -26.11573 | 115.23097 | 36967 ft | 495 kts | 170° |
| 2026-04-26 06:51 | -26.18182 | 115.25096 | 36965 ft | 495 kts | 170° |
| 2026-04-26 06:51 | -26.28142 | 115.28114 | 36970 ft | 495 kts | 170° |
| 2026-04-26 06:52 | -26.34793 | 115.30141 | 36973 ft | 494 kts | 170° |
| 2026-04-26 06:52 | -26.41446 | 115.32162 | 36973 ft | 494 kts | 171° |
| 2026-04-26 06:53 | -26.48044 | 115.34160 | 36976 ft | 494 kts | 171° |
| 2026-04-26 06:53 | -26.54690 | 115.36179 | 36979 ft | 494 kts | 171° |
| 2026-04-26 06:54 | -26.61285 | 115.38199 | 36985 ft | 493 kts | 171° |
| 2026-04-26 06:54 | -26.67913 | 115.40231 | 36985 ft | 493 kts | 171° |
| 2026-04-26 06:55 | -26.74535 | 115.42253 | 36986 ft | 493 kts | 171° |
| 2026-04-26 06:55 | -26.81163 | 115.44280 | 36990 ft | 492 kts | 171° |
| 2026-04-26 06:56 | -26.87738 | 115.46295 | 36991 ft | 492 kts | 171° |
| 2026-04-26 06:56 | -26.94333 | 115.48328 | 36991 ft | 491 kts | 171° |
| 2026-04-26 06:57 | -27.00939 | 115.50358 | 36997 ft | 491 kts | 171° |
| 2026-04-26 06:57 | -27.07491 | 115.52366 | 36998 ft | 491 kts | 170° |
| 2026-04-26 06:58 | -27.14084 | 115.54400 | 37001 ft | 490 kts | 170° |
| 2026-04-26 06:58 | -27.20678 | 115.56441 | 37002 ft | 490 kts | 170° |
| 2026-04-26 06:59 | -27.27242 | 115.58472 | 37007 ft | 489 kts | 170° |
| 2026-04-26 06:59 | -27.33832 | 115.59800 | 37010 ft | 482 kts | 178° |
| 2026-04-26 07:00 | -27.40473 | 115.60881 | 37009 ft | 481 kts | 178° |
| 2026-04-26 07:00 | -27.47092 | 115.61959 | 37011 ft | 481 kts | 177° |
| 2026-04-26 07:01 | -27.53714 | 115.63051 | 37017 ft | 480 kts | 177° |
| 2026-04-26 07:01 | -27.60283 | 115.64135 | 37016 ft | 479 kts | 177° |
| 2026-04-26 07:02 | -27.66890 | 115.65218 | 37016 ft | 478 kts | 177° |
| 2026-04-26 07:02 | -27.73481 | 115.66306 | 37019 ft | 478 kts | 177° |
| 2026-04-26 07:03 | -27.80021 | 115.67390 | 37026 ft | 477 kts | 177° |
| 2026-04-26 07:03 | -27.86587 | 115.68481 | 37020 ft | 476 kts | 176° |
| 2026-04-26 07:04 | -27.93147 | 115.69566 | 37014 ft | 475 kts | 176° |
| 2026-04-26 07:04 | -27.99645 | 115.70643 | 37021 ft | 475 kts | 176° |
| 2026-04-26 07:05 | -28.06181 | 115.71734 | 37022 ft | 474 kts | 176° |
| 2026-04-26 07:05 | -28.12718 | 115.72817 | 37018 ft | 474 kts | 176° |
| 2026-04-26 07:06 | -28.19248 | 115.73898 | 37017 ft | 474 kts | 176° |
| 2026-04-26 07:06 | -28.25774 | 115.74989 | 37010 ft | 475 kts | 176° |
| 2026-04-26 07:07 | -28.32319 | 115.76082 | 37009 ft | 475 kts | 176° |
| 2026-04-26 07:07 | -28.38833 | 115.77177 | 37010 ft | 476 kts | 176° |
| 2026-04-26 07:08 | -28.45394 | 115.78278 | 37007 ft | 477 kts | 176° |
| 2026-04-26 07:08 | -28.51970 | 115.79381 | 37013 ft | 478 kts | 176° |
| 2026-04-26 07:09 | -28.58557 | 115.80475 | 37014 ft | 478 kts | 177° |
| 2026-04-26 07:09 | -28.65146 | 115.81570 | 37022 ft | 479 kts | 177° |
| 2026-04-26 07:11 | -28.81607 | 115.84363 | 37028 ft | 480 kts | 177° |
| 2026-04-26 07:11 | -28.88221 | 115.85475 | 37029 ft | 481 kts | 177° |
| 2026-04-26 07:12 | -28.94838 | 115.86582 | 37025 ft | 481 kts | 177° |
| 2026-04-26 07:12 | -29.01477 | 115.87708 | 37033 ft | 482 kts | 178° |
| 2026-04-26 07:13 | -29.08124 | 115.88841 | 37037 ft | 482 kts | 178° |
| 2026-04-26 07:13 | -29.14753 | 115.89971 | 37047 ft | 482 kts | 178° |
| 2026-04-26 07:14 | -29.21347 | 115.91088 | 37052 ft | 482 kts | 178° |
| 2026-04-26 07:14 | -29.27981 | 115.92218 | 37057 ft | 482 kts | 178° |
| 2026-04-26 07:15 | -29.34602 | 115.93350 | 37060 ft | 481 kts | 178° |
| 2026-04-26 07:15 | -29.41237 | 115.94482 | 37072 ft | 481 kts | 178° |
| 2026-04-26 07:16 | -29.47849 | 115.95610 | 37074 ft | 480 kts | 178° |
| 2026-04-26 07:16 | -29.54468 | 115.96737 | 37079 ft | 480 kts | 178° |
| 2026-04-26 07:17 | -29.61030 | 115.97865 | 37081 ft | 479 kts | 178° |
| 2026-04-26 07:17 | -29.67622 | 115.98996 | 37085 ft | 479 kts | 178° |
| 2026-04-26 07:18 | -29.74216 | 116.00128 | 37082 ft | 478 kts | 178° |
| 2026-04-26 07:18 | -29.80792 | 116.01257 | 37082 ft | 478 kts | 178° |
| 2026-04-26 07:19 | -29.87339 | 116.02378 | 37084 ft | 477 kts | 178° |
| 2026-04-26 07:19 | -29.93927 | 116.03513 | 37082 ft | 477 kts | 178° |
| 2026-04-26 07:20 | -30.00505 | 116.04655 | 37082 ft | 477 kts | 178° |
| 2026-04-26 07:20 | -30.07025 | 116.05787 | 37084 ft | 477 kts | 178° |
| 2026-04-26 07:21 | -30.13593 | 116.06918 | 37086 ft | 477 kts | 179° |
| 2026-04-26 07:21 | -30.20165 | 116.08046 | 37079 ft | 477 kts | 179° |
| 2026-04-26 07:22 | -30.26752 | 116.09191 | 37080 ft | 478 kts | 179° |
| 2026-04-26 07:22 | -30.33329 | 116.10346 | 37077 ft | 478 kts | 179° |
| 2026-04-26 07:23 | -30.39883 | 116.11487 | 37079 ft | 478 kts | 179° |
| 2026-04-26 07:23 | -30.46479 | 116.12635 | 37081 ft | 479 kts | 179° |
| 2026-04-26 07:24 | -30.53073 | 116.13782 | 37086 ft | 479 kts | 179° |
| 2026-04-26 07:24 | -30.59633 | 116.14933 | 37091 ft | 479 kts | 179° |
| 2026-04-26 07:25 | -30.66233 | 116.16086 | 37094 ft | 479 kts | 179° |
| 2026-04-26 07:25 | -30.69540 | 116.16664 | 36514 ft | 483 kts | 179° |
| 2026-04-26 07:25 | -30.72898 | 116.17243 | 35613 ft | 491 kts | 178° |
| 2026-04-26 07:25 | -30.76281 | 116.17829 | 34725 ft | 493 kts | 178° |
| 2026-04-26 07:26 | -30.79679 | 116.18427 | 33764 ft | 494 kts | 177° |
| 2026-04-26 07:26 | -30.83082 | 116.19031 | 32676 ft | 495 kts | 176° |
| 2026-04-26 07:26 | -30.86495 | 116.19640 | 31494 ft | 496 kts | 175° |
| 2026-04-26 07:26 | -30.89918 | 116.20250 | 30186 ft | 499 kts | 175° |
| 2026-04-26 07:27 | -30.93366 | 116.20861 | 28944 ft | 502 kts | 175° |
| 2026-04-26 07:27 | -30.96803 | 116.21468 | 28206 ft | 496 kts | 175° |
| 2026-04-26 07:27 | -31.00189 | 116.22064 | 27489 ft | 490 kts | 175° |
| 2026-04-26 07:27 | -31.03544 | 116.22655 | 26775 ft | 485 kts | 174° |
| 2026-04-26 07:28 | -31.06861 | 116.23238 | 26068 ft | 479 kts | 174° |
| 2026-04-26 07:28 | -31.10138 | 116.23817 | 25377 ft | 474 kts | 174° |
| 2026-04-26 07:28 | -31.13388 | 116.24391 | 24684 ft | 469 kts | 174° |
| 2026-04-26 07:28 | -31.16592 | 116.24956 | 24010 ft | 462 kts | 174° |
| 2026-04-26 07:29 | -31.19752 | 116.25516 | 23289 ft | 455 kts | 174° |
| 2026-04-26 07:29 | -31.22855 | 116.26065 | 22645 ft | 445 kts | 174° |
| 2026-04-26 07:29 | -31.25845 | 116.26596 | 22058 ft | 436 kts | 174° |
| 2026-04-26 07:29 | -31.28820 | 116.27124 | 21478 ft | 428 kts | 174° |
| 2026-04-26 07:30 | -31.31732 | 116.27642 | 20914 ft | 420 kts | 174° |
| 2026-04-26 07:30 | -31.34600 | 116.28153 | 20373 ft | 414 kts | 173° |
| 2026-04-26 07:30 | -31.37434 | 116.28580 | 19839 ft | 406 kts | 179° |
| 2026-04-26 07:30 | -31.40215 | 116.28517 | 19363 ft | 396 kts | 188° |
| 2026-04-26 07:31 | -31.42893 | 116.27943 | 18896 ft | 385 kts | 197° |
| 2026-04-26 07:31 | -31.45389 | 116.26916 | 18402 ft | 376 kts | 206° |
| 2026-04-26 07:31 | -31.47691 | 116.25523 | 17885 ft | 368 kts | 211° |
| 2026-04-26 07:31 | -31.49907 | 116.24102 | 17403 ft | 362 kts | 211° |
| 2026-04-26 07:32 | -31.52114 | 116.22691 | 16917 ft | 360 kts | 211° |
| 2026-04-26 07:32 | -31.54310 | 116.21289 | 16409 ft | 358 kts | 211° |
| 2026-04-26 07:32 | -31.56501 | 116.19889 | 15798 ft | 358 kts | 211° |
| 2026-04-26 07:32 | -31.58656 | 116.18511 | 15300 ft | 356 kts | 211° |
| 2026-04-26 07:33 | -31.60819 | 116.17127 | 14792 ft | 353 kts | 211° |
| 2026-04-26 07:33 | -31.62970 | 116.15747 | 14289 ft | 351 kts | 211° |
| 2026-04-26 07:33 | -31.65109 | 116.14372 | 13760 ft | 350 kts | 211° |
| 2026-04-26 07:33 | -31.67242 | 116.13004 | 13218 ft | 348 kts | 211° |
| 2026-04-26 07:34 | -31.69356 | 116.11649 | 12719 ft | 345 kts | 211° |
| 2026-04-26 07:34 | -31.71453 | 116.10311 | 12169 ft | 342 kts | 209° |
| 2026-04-26 07:34 | -31.73727 | 116.09421 | 11277 ft | 350 kts | 189° |
| 2026-04-26 07:34 | -31.76133 | 116.09543 | 10951 ft | 340 kts | 168° |
| 2026-04-26 07:35 | -31.78285 | 116.10497 | 10825 ft | 323 kts | 154° |
| 2026-04-26 07:35 | -31.80264 | 116.11639 | 10511 ft | 314 kts | 154° |
| 2026-04-26 07:35 | -31.82208 | 116.12777 | 10186 ft | 309 kts | 153° |
| 2026-04-26 07:35 | -31.84113 | 116.13901 | 10089 ft | 306 kts | 153° |
| 2026-04-26 07:36 | -31.85987 | 116.15012 | 9895 ft | 306 kts | 153° |
| 2026-04-26 07:36 | -31.87284 | 116.15783 | 9409 ft | 313 kts | 153° |
| 2026-04-26 07:36 | -31.89836 | 116.17298 | 8913 ft | 304 kts | 153° |
| 2026-04-26 07:36 | -31.91693 | 116.18398 | 8405 ft | 301 kts | 153° |
| 2026-04-26 07:37 | -31.92940 | 116.19137 | 8256 ft | 291 kts | 153° |
| 2026-04-26 07:37 | -31.94709 | 116.20141 | 8062 ft | 276 kts | 160° |
| 2026-04-26 07:37 | -31.97119 | 116.20467 | 7707 ft | 259 kts | 189° |
| 2026-04-26 07:37 | -31.98836 | 116.19791 | 7046 ft | 265 kts | 213° |
| 2026-04-26 07:38 | -31.99826 | 116.18894 | 6598 ft | 268 kts | 227° |
| 2026-04-26 07:38 | -32.01120 | 116.17285 | 5878 ft | 274 kts | 229° |
| 2026-04-26 07:38 | -32.02438 | 116.15646 | 5163 ft | 274 kts | 228° |
| 2026-04-26 07:38 | -32.03734 | 116.14044 | 4528 ft | 264 kts | 227° |
| 2026-04-26 07:39 | -32.04943 | 116.12556 | 4300 ft | 247 kts | 227° |
| 2026-04-26 07:39 | -32.06022 | 116.11106 | 4174 ft | 222 kts | 239° |
| 2026-04-26 07:39 | -32.06546 | 116.09490 | 4120 ft | 207 kts | 263° |
| 2026-04-26 07:39 | -32.06506 | 116.07827 | 3775 ft | 200 kts | 284° |
| 2026-04-26 07:40 | -32.06197 | 116.06258 | 3454 ft | 193 kts | 284° |
| 2026-04-26 07:40 | -32.05911 | 116.04749 | 3170 ft | 182 kts | 284° |
| 2026-04-26 07:40 | -32.05647 | 116.03348 | 2917 ft | 170 kts | 284° |
| 2026-04-26 07:40 | -32.05400 | 116.02032 | 2718 ft | 156 kts | 283° |
| 2026-04-26 07:41 | -32.05174 | 116.00833 | 2493 ft | 145 kts | 284° |
| 2026-04-26 07:41 | -32.04958 | 115.99690 | 2305 ft | 141 kts | 283° |
| 2026-04-26 07:41 | -32.04730 | 115.98564 | 2102 ft | 141 kts | 288° |
| 2026-04-26 07:41 | -32.04333 | 115.97515 | 1933 ft | 140 kts | 301° |
| 2026-04-26 07:42 | -32.03773 | 115.96609 | 1762 ft | 138 kts | 314° |
| 2026-04-26 07:42 | -32.03060 | 115.95849 | 1577 ft | 136 kts | 326° |
| 2026-04-26 07:42 | -32.02297 | 115.95315 | 1420 ft | 135 kts | 337° |
| 2026-04-26 07:42 | -32.01494 | 115.94976 | 1269 ft | 133 kts | 348° |
| 2026-04-26 07:43 | -32.00592 | 115.94821 | 1095 ft | 131 kts | 359° |
| 2026-04-26 07:43 | -31.99694 | 115.94881 | 930 ft | 129 kts | 11° |
| 2026-04-26 07:43 | -31.98825 | 115.95114 | 747 ft | 128 kts | 17° |
| 2026-04-26 07:43 | -31.97963 | 115.95364 | 567 ft | 127 kts | 18° |
| 2026-04-26 07:44 | -31.97102 | 115.95615 | 388 ft | 128 kts | 16° |
| 2026-04-26 07:44 | -31.96251 | 115.95864 | 197 ft | 125 kts | 16° |
| 2026-04-26 07:44 | -31.95414 | 115.96101 | 64 ft | 117 kts | 16° |
| 2026-04-26 07:44 | -31.94726 | 115.96306 | 67 ft | 85 kts | 13° |
| 2026-04-26 07:45 | -31.94220 | 115.96455 | 68 ft | 71 kts | 13° |
| 2026-04-26 07:45 | -31.93739 | 115.96593 | 69 ft | 65 kts | 13° |
| 2026-04-26 07:45 | -31.93528 | 115.96613 | 64 ft | 16 kts | 307° |
| 2026-04-26 07:45 | -31.93476 | 115.96490 | 65 ft | 17 kts | 294° |
| 2026-04-26 07:46 | -31.93430 | 115.96370 | 64 ft | 14 kts | 295° |
| 2026-04-26 07:46 | -31.93407 | 115.96267 | 60 ft | 12 kts | 295° |
| 2026-04-26 07:46 | -31.93383 | 115.96193 | 66 ft | 5 kts | 289° |
| 2026-04-26 07:46 | -31.93380 | 115.96184 | 66 ft | 0 kts | 289° |